sensor_id;sensor_type;location;lat;lon;timestamp;pressure;altitude;pressure_sealevel;temperature;humidity
9460;BME280;4768;42.664;23.240;2023-03-03T00:00:43;-9493.31;;;2.93;100.00
9460;BME280;4768;42.664;23.240;2023-03-03T00:03:11;-9493.59;;;2.94;100.00
9460;BME280;4768;42.664;23.240;2023-03-03T00:05:40;-9494.00;;;2.95;100.00
9460;BME280;4768;42.664;23.240;2023-03-03T00:08:08;-9492.31;;;2.89;100.00
9460;BME280;4768;42.664;23.240;2023-03-03T00:10:37;-9492.88;;;2.91;100.00
9460;BME280;4768;42.664;23.240;2023-03-03T00:13:12;-9491.34;;;2.86;100.00
9460;BME280;4768;42.664;23.240;2023-03-03T00:15:40;-9491.75;;;2.88;100.00
9460;BME280;4768;42.664;23.240;2023-03-03T00:18:17;-9491.75;;;2.88;100.00
9460;BME280;4768;42.664;23.240;2023-03-03T00:20:49;-9490.91;;;2.85;100.00
9460;BME280;4768;42.664;23.240;2023-03-03T00:23:27;-9491.06;;;2.85;100.00
9460;BME280;4768;42.664;23.240;2023-03-03T00:25:57;-9490.19;;;2.82;100.00
9460;BME280;4768;42.664;23.240;2023-03-03T00:28:27;-9490.34;;;2.83;100.00
9460;BME280;4768;42.664;23.240;2023-03-03T00:30:56;-9489.50;;;2.80;100.00
9460;BME280;4768;42.664;23.240;2023-03-03T00:33:30;-9489.06;;;2.78;100.00
9460;BME280;4768;42.664;23.240;2023-03-03T00:36:23;-9488.78;;;2.77;100.00
9460;BME280;4768;42.664;23.240;2023-03-03T00:38:53;-9487.94;;;2.74;100.00
9460;BME280;4768;42.664;23.240;2023-03-03T00:41:24;-9487.66;;;2.73;100.00
9460;BME280;4768;42.664;23.240;2023-03-03T00:43:51;-9487.53;;;2.73;100.00
9460;BME280;4768;42.664;23.240;2023-03-03T00:46:19;-9486.81;;;2.70;100.00
9460;BME280;4768;42.664;23.240;2023-03-03T00:48:48;-9486.81;;;2.70;100.00
9460;BME280;4768;42.664;23.240;2023-03-03T00:51:28;-9486.25;;;2.68;100.00
9460;BME280;4768;42.664;23.240;2023-03-03T00:53:55;-9486.69;;;2.70;100.00
9460;BME280;4768;42.664;23.240;2023-03-03T00:56:23;-9486.41;;;2.69;100.00
9460;BME280;4768;42.664;23.240;2023-03-03T00:58:50;-9486.69;;;2.70;100.00
9460;BME280;4768;42.664;23.240;2023-03-03T01:01:18;-9485.84;;;2.67;100.00
9460;BME280;4768;42.664;23.240;2023-03-03T01:03:44;-9485.69;;;2.66;100.00
9460;BME280;4768;42.664;23.240;2023-03-03T01:06:12;-9485.25;;;2.65;100.00
9460;BME280;4768;42.664;23.240;2023-03-03T01:08:39;-9486.25;;;2.68;100.00
9460;BME280;4768;42.664;23.240;2023-03-03T01:11:09;-9485.97;;;2.67;100.00
9460;BME280;4768;42.664;23.240;2023-03-03T01:13:41;-9484.69;;;2.63;100.00
9460;BME280;4768;42.664;23.240;2023-03-03T01:16:08;-9485.13;;;2.64;100.00
9460;BME280;4768;42.664;23.240;2023-03-03T01:18:35;-9484.69;;;2.63;100.00
9460;BME280;4768;42.664;23.240;2023-03-03T01:21:02;-9484.56;;;2.62;100.00
9460;BME280;4768;42.664;23.240;2023-03-03T01:23:29;-9485.13;;;2.64;100.00
9460;BME280;4768;42.664;23.240;2023-03-03T01:25:56;-9486.25;;;2.68;100.00
9460;BME280;4768;42.664;23.240;2023-03-03T01:28:23;-9485.69;;;2.66;100.00
9460;BME280;4768;42.664;23.240;2023-03-03T01:30:51;-9485.97;;;2.67;100.00
9460;BME280;4768;42.664;23.240;2023-03-03T01:33:18;-9485.53;;;2.66;100.00
9460;BME280;4768;42.664;23.240;2023-03-03T01:35:45;-9485.69;;;2.66;100.00
9460;BME280;4768;42.664;23.240;2023-03-03T01:38:12;-9485.41;;;2.65;100.00
9460;BME280;4768;42.664;23.240;2023-03-03T01:40:39;-9486.25;;;2.68;100.00
9460;BME280;4768;42.664;23.240;2023-03-03T01:43:06;-9485.97;;;2.67;100.00
9460;BME280;4768;42.664;23.240;2023-03-03T01:45:43;-9485.41;;;2.65;100.00
9460;BME280;4768;42.664;23.240;2023-03-03T01:48:34;-9484.56;;;2.62;100.00
9460;BME280;4768;42.664;23.240;2023-03-03T01:51:05;-9485.53;;;2.66;100.00
9460;BME280;4768;42.664;23.240;2023-03-03T01:53:41;-9485.97;;;2.67;100.00
9460;BME280;4768;42.664;23.240;2023-03-03T01:56:09;-9485.69;;;2.66;100.00
9460;BME280;4768;42.664;23.240;2023-03-03T01:58:39;-9485.41;;;2.65;100.00
9460;BME280;4768;42.664;23.240;2023-03-03T02:01:10;-9484.00;;;2.60;100.00
9460;BME280;4768;42.664;23.240;2023-03-03T02:03:39;-9484.56;;;2.62;100.00
9460;BME280;4768;42.664;23.240;2023-03-03T02:06:09;-9484.56;;;2.62;100.00
9460;BME280;4768;42.664;23.240;2023-03-03T02:08:41;-9485.69;;;2.66;100.00
9460;BME280;4768;42.664;23.240;2023-03-03T02:11:11;-9485.25;;;2.65;100.00
9460;BME280;4768;42.664;23.240;2023-03-03T02:13:39;-9485.25;;;2.65;100.00
9460;BME280;4768;42.664;23.240;2023-03-03T02:16:06;-9486.25;;;2.68;100.00
9460;BME280;4768;42.664;23.240;2023-03-03T02:18:33;-9485.84;;;2.67;100.00
9460;BME280;4768;42.664;23.240;2023-03-03T02:21:05;-9485.13;;;2.64;100.00
9460;BME280;4768;42.664;23.240;2023-03-03T02:23:37;-9484.97;;;2.64;100.00
9460;BME280;4768;42.664;23.240;2023-03-03T02:26:09;-9485.53;;;2.66;100.00
9460;BME280;4768;42.664;23.240;2023-03-03T02:28:37;-9485.13;;;2.64;100.00
9460;BME280;4768;42.664;23.240;2023-03-03T02:31:07;-9484.41;;;2.62;100.00
9460;BME280;4768;42.664;23.240;2023-03-03T02:33:35;-9484.84;;;2.63;100.00
9460;BME280;4768;42.664;23.240;2023-03-03T02:36:01;-9486.53;;;2.69;100.00
9460;BME280;4768;42.664;23.240;2023-03-03T02:38:31;-9484.41;;;2.62;100.00
9460;BME280;4768;42.664;23.240;2023-03-03T02:41:08;-9485.53;;;2.66;100.00
9460;BME280;4768;42.664;23.240;2023-03-03T02:43:44;-9484.84;;;2.63;100.00
9460;BME280;4768;42.664;23.240;2023-03-03T02:46:12;-9484.00;;;2.60;100.00
9460;BME280;4768;42.664;23.240;2023-03-03T02:48:39;-9482.88;;;2.56;100.00
9460;BME280;4768;42.664;23.240;2023-03-03T02:51:05;-9482.16;;;2.54;100.00
9460;BME280;4768;42.664;23.240;2023-03-03T02:53:32;-9480.31;;;2.47;100.00
9460;BME280;4768;42.664;23.240;2023-03-03T02:55:59;-9481.31;;;2.51;100.00
9460;BME280;4768;42.664;23.240;2023-03-03T02:58:27;-9479.75;;;2.45;100.00
9460;BME280;4768;42.664;23.240;2023-03-03T03:00:54;-9479.63;;;2.45;100.00
9460;BME280;4768;42.664;23.240;2023-03-03T03:03:21;-9479.06;;;2.43;100.00
9460;BME280;4768;42.664;23.240;2023-03-03T03:05:47;-9477.94;;;2.39;100.00
9460;BME280;4768;42.664;23.240;2023-03-03T03:08:14;-9477.34;;;2.37;100.00
9460;BME280;4768;42.664;23.240;2023-03-03T03:10:41;-9476.66;;;2.35;100.00
9460;BME280;4768;42.664;23.240;2023-03-03T03:13:08;-9475.38;;;2.30;100.00
9460;BME280;4768;42.664;23.240;2023-03-03T03:15:36;-9474.53;;;2.27;100.00
9460;BME280;4768;42.664;23.240;2023-03-03T03:18:03;-9474.53;;;2.27;100.00
9460;BME280;4768;42.664;23.240;2023-03-03T03:20:29;-9473.41;;;2.23;100.00
9460;BME280;4768;42.664;23.240;2023-03-03T03:22:56;-9473.00;;;2.22;100.00
9460;BME280;4768;42.664;23.240;2023-03-03T03:25:23;-9473.28;;;2.23;100.00
9460;BME280;4768;42.664;23.240;2023-03-03T03:27:50;-9472.56;;;2.20;100.00
9460;BME280;4768;42.664;23.240;2023-03-03T03:30:16;-9472.28;;;2.19;100.00
9460;BME280;4768;42.664;23.240;2023-03-03T03:32:46;-9471.28;;;2.16;100.00
9460;BME280;4768;42.664;23.240;2023-03-03T03:35:13;-9470.31;;;2.12;100.00
9460;BME280;4768;42.664;23.240;2023-03-03T03:37:41;-9470.44;;;2.13;100.00
9460;BME280;4768;42.664;23.240;2023-03-03T03:40:10;-9470.16;;;2.12;100.00
9460;BME280;4768;42.664;23.240;2023-03-03T03:42:37;-9467.63;;;2.03;100.00
9460;BME280;4768;42.664;23.240;2023-03-03T03:45:06;-9467.63;;;2.03;100.00
9460;BME280;4768;42.664;23.240;2023-03-03T03:47:32;-9467.22;;;2.01;100.00
9460;BME280;4768;42.664;23.240;2023-03-03T03:50:01;-9466.94;;;2.00;100.00
9460;BME280;4768;42.664;23.240;2023-03-03T03:52:27;-9466.09;;;1.97;100.00
9460;BME280;4768;42.664;23.240;2023-03-03T03:54:54;-9465.22;;;1.94;100.00
9460;BME280;4768;42.664;23.240;2023-03-03T03:57:21;-9464.94;;;1.93;100.00
9460;BME280;4768;42.664;23.240;2023-03-03T03:59:48;-9463.69;;;1.89;100.00
9460;BME280;4768;42.664;23.240;2023-03-03T04:02:15;-9463.25;;;1.88;100.00
9460;BME280;4768;42.664;23.240;2023-03-03T04:04:42;-9463.13;;;1.87;100.00
9460;BME280;4768;42.664;23.240;2023-03-03T04:07:10;-9462.00;;;1.83;100.00
9460;BME280;4768;42.664;23.240;2023-03-03T04:09:36;-9461.69;;;1.82;100.00
9460;BME280;4768;42.664;23.240;2023-03-03T04:12:03;-9461.13;;;1.80;100.00
9460;BME280;4768;42.664;23.240;2023-03-03T04:14:30;-9460.72;;;1.79;100.00
9460;BME280;4768;42.664;23.240;2023-03-03T04:16:57;-9460.56;;;1.78;100.00
9460;BME280;4768;42.664;23.240;2023-03-03T04:19:24;-9459.88;;;1.76;100.00
9460;BME280;4768;42.664;23.240;2023-03-03T04:21:50;-9460.72;;;1.79;100.00
9460;BME280;4768;42.664;23.240;2023-03-03T04:24:18;-9460.28;;;1.77;100.00
9460;BME280;4768;42.664;23.240;2023-03-03T04:26:45;-9460.16;;;1.77;100.00
9460;BME280;4768;42.664;23.240;2023-03-03T04:29:12;-9459.03;;;1.73;100.00
9460;BME280;4768;42.664;23.240;2023-03-03T04:31:39;-9459.31;;;1.74;100.00
9460;BME280;4768;42.664;23.240;2023-03-03T04:34:05;-9458.75;;;1.72;100.00
9460;BME280;4768;42.664;23.240;2023-03-03T04:36:32;-9459.03;;;1.73;100.00
9460;BME280;4768;42.664;23.240;2023-03-03T04:38:59;-9458.59;;;1.71;100.00
9460;BME280;4768;42.664;23.240;2023-03-03T04:41:27;-9459.16;;;1.73;100.00
9460;BME280;4768;42.664;23.240;2023-03-03T04:43:54;-9459.03;;;1.73;100.00
9460;BME280;4768;42.664;23.240;2023-03-03T04:46:20;-9459.16;;;1.73;100.00
9460;BME280;4768;42.664;23.240;2023-03-03T04:48:47;-9459.59;;;1.75;100.00
9460;BME280;4768;42.664;23.240;2023-03-03T04:51:14;-9460.16;;;1.77;100.00
9460;BME280;4768;42.664;23.240;2023-03-03T04:53:41;-9459.72;;;1.75;100.00
9460;BME280;4768;42.664;23.240;2023-03-03T04:56:07;-9459.72;;;1.75;100.00
9460;BME280;4768;42.664;23.240;2023-03-03T04:58:35;-9459.59;;;1.75;100.00
9460;BME280;4768;42.664;23.240;2023-03-03T05:01:02;-9459.72;;;1.75;100.00
9460;BME280;4768;42.664;23.240;2023-03-03T05:03:29;-9459.31;;;1.74;100.00
9460;BME280;4768;42.664;23.240;2023-03-03T05:05:56;-9459.16;;;1.73;100.00
9460;BME280;4768;42.664;23.240;2023-03-03T05:08:22;-9458.75;;;1.72;100.00
9460;BME280;4768;42.664;23.240;2023-03-03T05:10:51;-9459.16;;;1.73;100.00
9460;BME280;4768;42.664;23.240;2023-03-03T05:13:18;-9459.31;;;1.74;100.00
9460;BME280;4768;42.664;23.240;2023-03-03T05:15:49;-9460.28;;;1.77;100.00
9460;BME280;4768;42.664;23.240;2023-03-03T05:18:17;-9461.00;;;1.80;100.00
9460;BME280;4768;42.664;23.240;2023-03-03T05:20:44;-9461.41;;;1.81;100.00
9460;BME280;4768;42.664;23.240;2023-03-03T05:23:10;-9463.41;;;1.88;100.00
9460;BME280;4768;42.664;23.240;2023-03-03T05:25:39;-9460.84;;;1.79;100.00
9460;BME280;4768;42.664;23.240;2023-03-03T05:28:06;-9462.25;;;1.84;100.00
9460;BME280;4768;42.664;23.240;2023-03-03T05:30:33;-9464.25;;;1.91;100.00
9460;BME280;4768;42.664;23.240;2023-03-03T05:33:01;-9464.38;;;1.92;100.00
9460;BME280;4768;42.664;23.240;2023-03-03T05:35:28;-9463.41;;;1.88;100.00
9460;BME280;4768;42.664;23.240;2023-03-03T05:37:55;-9464.53;;;1.92;100.00
9460;BME280;4768;42.664;23.240;2023-03-03T05:40:22;-9465.94;;;1.97;100.00
9460;BME280;4768;42.664;23.240;2023-03-03T05:42:50;-9464.09;;;1.91;100.00
9460;BME280;4768;42.664;23.240;2023-03-03T05:45:17;-9465.38;;;1.95;100.00
9460;BME280;4768;42.664;23.240;2023-03-03T05:47:45;-9466.09;;;1.97;100.00
9460;BME280;4768;42.664;23.240;2023-03-03T05:50:15;-9466.22;;;1.98;100.00
9460;BME280;4768;42.664;23.240;2023-03-03T05:52:41;-9466.78;;;2.00;100.00
9460;BME280;4768;42.664;23.240;2023-03-03T05:55:09;-9467.78;;;2.03;100.00
9460;BME280;4768;42.664;23.240;2023-03-03T05:57:36;-9468.19;;;2.05;100.00
9460;BME280;4768;42.664;23.240;2023-03-03T06:00:04;-9468.19;;;2.05;100.00
9460;BME280;4768;42.664;23.240;2023-03-03T06:02:32;-9467.50;;;2.02;100.00
9460;BME280;4768;42.664;23.240;2023-03-03T06:04:59;-9467.22;;;2.01;100.00
9460;BME280;4768;42.664;23.240;2023-03-03T06:07:28;-9466.66;;;1.99;100.00
9460;BME280;4768;42.664;23.240;2023-03-03T06:09:54;-9466.34;;;1.98;100.00
9460;BME280;4768;42.664;23.240;2023-03-03T06:12:21;-9466.34;;;1.98;100.00
9460;BME280;4768;42.664;23.240;2023-03-03T06:14:48;-9466.78;;;2.00;100.00
9460;BME280;4768;42.664;23.240;2023-03-03T06:17:16;-9464.38;;;1.92;100.00
9460;BME280;4768;42.664;23.240;2023-03-03T06:19:43;-9466.34;;;1.98;100.00
9460;BME280;4768;42.664;23.240;2023-03-03T06:22:11;-9466.66;;;1.99;100.00
9460;BME280;4768;42.664;23.240;2023-03-03T06:24:39;-9466.09;;;1.97;100.00
9460;BME280;4768;42.664;23.240;2023-03-03T06:27:06;-9466.09;;;1.97;100.00
9460;BME280;4768;42.664;23.240;2023-03-03T06:29:32;-9466.66;;;1.99;100.00
9460;BME280;4768;42.664;23.240;2023-03-03T06:31:59;-9467.78;;;2.03;100.00
9460;BME280;4768;42.664;23.240;2023-03-03T06:34:26;-9467.22;;;2.01;100.00
9460;BME280;4768;42.664;23.240;2023-03-03T06:36:53;-9467.63;;;2.03;100.00
9460;BME280;4768;42.664;23.240;2023-03-03T06:39:21;-9467.63;;;2.03;100.00
9460;BME280;4768;42.664;23.240;2023-03-03T06:41:49;-9470.31;;;2.12;100.00
9460;BME280;4768;42.664;23.240;2023-03-03T06:44:16;-9472.00;;;2.18;100.00
9460;BME280;4768;42.664;23.240;2023-03-03T06:46:42;-9469.19;;;2.08;100.00
9460;BME280;4768;42.664;23.240;2023-03-03T06:49:09;-9467.91;;;2.04;100.00
9460;BME280;4768;42.664;23.240;2023-03-03T06:51:37;-9469.19;;;2.08;100.00
9460;BME280;4768;42.664;23.240;2023-03-03T06:54:10;-9469.88;;;2.11;100.00
9460;BME280;4768;42.664;23.240;2023-03-03T06:56:37;-9473.13;;;2.22;100.00
9460;BME280;4768;42.664;23.240;2023-03-03T06:59:11;-9474.25;;;2.26;100.00
9460;BME280;4768;42.664;23.240;2023-03-03T07:01:38;-9473.28;;;2.23;100.00
9460;BME280;4768;42.664;23.240;2023-03-03T07:04:22;-9472.56;;;2.20;100.00
9460;BME280;4768;42.664;23.240;2023-03-03T07:06:53;-9474.53;;;2.27;100.00
9460;BME280;4768;42.664;23.240;2023-03-03T07:09:21;-9475.53;;;2.31;100.00
9460;BME280;4768;42.664;23.240;2023-03-03T07:11:49;-9471.72;;;2.17;100.00
9460;BME280;4768;42.664;23.240;2023-03-03T07:14:18;-9472.44;;;2.20;100.00
9460;BME280;4768;42.664;23.240;2023-03-03T07:16:45;-9471.16;;;2.15;100.00
9460;BME280;4768;42.664;23.240;2023-03-03T07:19:18;-9474.81;;;2.28;100.00
9460;BME280;4768;42.664;23.240;2023-03-03T07:21:46;-9475.94;;;2.32;100.00
9460;BME280;4768;42.664;23.240;2023-03-03T07:24:24;-9477.50;;;2.38;100.00
9460;BME280;4768;42.664;23.240;2023-03-03T07:26:54;-9476.25;;;2.33;100.00
9460;BME280;4768;42.664;23.240;2023-03-03T07:29:25;-9475.94;;;2.32;100.00
9460;BME280;4768;42.664;23.240;2023-03-03T07:31:54;-9480.19;;;2.47;100.00
9460;BME280;4768;42.664;23.240;2023-03-03T07:34:23;-9478.06;;;2.39;100.00
9460;BME280;4768;42.664;23.240;2023-03-03T07:36:53;-9479.19;;;2.43;100.00
9460;BME280;4768;42.664;23.240;2023-03-03T07:39:29;-9481.31;;;2.51;100.00
9460;BME280;4768;42.664;23.240;2023-03-03T07:42:17;-9478.50;;;2.41;100.00
9460;BME280;4768;42.664;23.240;2023-03-03T07:44:49;-9481.88;;;2.53;100.00
9460;BME280;4768;42.664;23.240;2023-03-03T07:47:19;-9482.31;;;2.54;100.00
9460;BME280;4768;42.664;23.240;2023-03-03T07:49:47;-9481.44;;;2.51;100.00
9460;BME280;4768;42.664;23.240;2023-03-03T07:52:27;-9480.88;;;2.49;100.00
9460;BME280;4768;42.664;23.240;2023-03-03T07:54:55;-9483.72;;;2.59;100.00
9460;BME280;4768;42.664;23.240;2023-03-03T07:57:24;-9479.34;;;2.44;100.00
9460;BME280;4768;42.664;23.240;2023-03-03T07:59:57;-9480.88;;;2.49;100.00
9460;BME280;4768;42.664;23.240;2023-03-03T08:02:35;-9486.41;;;2.69;100.00
9460;BME280;4768;42.664;23.240;2023-03-03T08:05:22;-9485.25;;;2.65;100.00
9460;BME280;4768;42.664;23.240;2023-03-03T08:07:52;-9485.53;;;2.66;100.00
9460;BME280;4768;42.664;23.240;2023-03-03T08:10:35;-9485.97;;;2.67;100.00
9460;BME280;4768;42.664;23.240;2023-03-03T08:13:12;-9487.53;;;2.73;100.00
9460;BME280;4768;42.664;23.240;2023-03-03T08:15:44;-9490.50;;;2.83;100.00
9460;BME280;4768;42.664;23.240;2023-03-03T08:18:18;-9492.59;;;2.90;100.00
9460;BME280;4768;42.664;23.240;2023-03-03T08:20:48;-9493.16;;;2.92;100.00
9460;BME280;4768;42.664;23.240;2023-03-03T08:23:16;-9494.00;;;2.95;100.00
9460;BME280;4768;42.664;23.240;2023-03-03T08:25:44;-9494.72;;;2.98;100.00
9460;BME280;4768;42.664;23.240;2023-03-03T08:28:11;-9494.44;;;2.97;100.00
9460;BME280;4768;42.664;23.240;2023-03-03T08:30:38;-9499.09;;;3.13;100.00
9460;BME280;4768;42.664;23.240;2023-03-03T08:33:07;-9495.28;;;3.00;100.00
9460;BME280;4768;42.664;23.240;2023-03-03T08:35:33;-9500.38;;;3.18;100.00
9460;BME280;4768;42.664;23.240;2023-03-03T08:38:01;-9499.38;;;3.14;100.00
9460;BME280;4768;42.664;23.240;2023-03-03T08:40:27;-9498.66;;;3.12;100.00
9460;BME280;4768;42.664;23.240;2023-03-03T08:42:54;-9500.09;;;3.17;100.00
9460;BME280;4768;42.664;23.240;2023-03-03T08:45:22;-9501.50;;;3.22;100.00
9460;BME280;4768;42.664;23.240;2023-03-03T08:47:49;-9502.34;;;3.25;100.00
9460;BME280;4768;42.664;23.240;2023-03-03T08:50:17;-9500.66;;;3.19;100.00
9460;BME280;4768;42.664;23.240;2023-03-03T08:52:44;-9502.22;;;3.24;100.00
9460;BME280;4768;42.664;23.240;2023-03-03T08:55:11;-9502.22;;;3.24;100.00
9460;BME280;4768;42.664;23.240;2023-03-03T08:57:38;-9500.94;;;3.20;100.00
9460;BME280;4768;42.664;23.240;2023-03-03T09:00:07;-9498.97;;;3.13;100.00
9460;BME280;4768;42.664;23.240;2023-03-03T09:02:34;-9501.91;;;3.23;100.00
9460;BME280;4768;42.664;23.240;2023-03-03T09:05:02;-9511.38;;;3.56;100.00
9460;BME280;4768;42.664;23.240;2023-03-03T09:07:31;-9508.13;;;3.45;100.00
9460;BME280;4768;42.664;23.240;2023-03-03T09:09:58;-9509.97;;;3.51;100.00
9460;BME280;4768;42.664;23.240;2023-03-03T09:12:29;-9507.16;;;3.41;100.00
9460;BME280;4768;42.664;23.240;2023-03-03T09:14:57;-9513.78;;;3.65;100.00
9460;BME280;4768;42.664;23.240;2023-03-03T09:17:28;-9518.03;;;3.80;100.00
9460;BME280;4768;42.664;23.240;2023-03-03T09:19:59;-9511.38;;;3.56;100.00
9460;BME280;4768;42.664;23.240;2023-03-03T09:22:30;-9509.53;;;3.50;100.00
9460;BME280;4768;42.664;23.240;2023-03-03T09:25:13;-9506.28;;;3.38;100.00
9460;BME280;4768;42.664;23.240;2023-03-03T09:27:45;-9507.84;;;3.44;100.00
9460;BME280;4768;42.664;23.240;2023-03-03T09:30:27;-9513.34;;;3.63;100.00
9460;BME280;4768;42.664;23.240;2023-03-03T09:32:56;-9505.88;;;3.37;100.00
9460;BME280;4768;42.664;23.240;2023-03-03T09:35:35;-9511.94;;;3.58;100.00
9460;BME280;4768;42.664;23.240;2023-03-03T09:38:17;-9508.84;;;3.47;100.00
9460;BME280;4768;42.664;23.240;2023-03-03T09:41:00;-9508.56;;;3.46;100.00
9460;BME280;4768;42.664;23.240;2023-03-03T09:43:36;-9508.41;;;3.46;100.00
9460;BME280;4768;42.664;23.240;2023-03-03T09:46:11;-9510.69;;;3.54;100.00
9460;BME280;4768;42.664;23.240;2023-03-03T09:48:50;-9512.38;;;3.60;100.00
9460;BME280;4768;42.664;23.240;2023-03-03T09:51:33;-9516.59;;;3.75;100.00
9460;BME280;4768;42.664;23.240;2023-03-03T09:56:53;-9522.97;;;3.97;100.00
9460;BME280;4768;42.664;23.240;2023-03-03T09:59:34;-9523.66;;;3.99;100.00
9460;BME280;4768;42.664;23.240;2023-03-03T10:02:21;-9518.03;;;3.80;100.00
9460;BME280;4768;42.664;23.240;2023-03-03T10:05:01;-9514.78;;;3.68;100.00
9460;BME280;4768;42.664;23.240;2023-03-03T10:07:43;-9517.16;;;3.77;100.00
9460;BME280;4768;42.664;23.240;2023-03-03T10:10:24;-9516.31;;;3.74;100.00
9460;BME280;4768;42.664;23.240;2023-03-03T10:13:08;-9516.88;;;3.76;100.00
9460;BME280;4768;42.664;23.240;2023-03-03T10:15:43;-9515.06;;;3.69;100.00
9460;BME280;4768;42.664;23.240;2023-03-03T10:18:23;-9513.22;;;3.63;100.00
9460;BME280;4768;42.664;23.240;2023-03-03T10:21:01;-9515.34;;;3.70;100.00
9460;BME280;4768;42.664;23.240;2023-03-03T10:23:45;-9518.16;;;3.80;100.00
9460;BME280;4768;42.664;23.240;2023-03-03T10:26:21;-9514.63;;;3.68;100.00
9460;BME280;4768;42.664;23.240;2023-03-03T10:29:02;-9515.63;;;3.71;100.00
9460;BME280;4768;42.664;23.240;2023-03-03T10:31:44;-9517.72;;;3.79;100.00
9460;BME280;4768;42.664;23.240;2023-03-03T10:34:27;-9521.84;;;3.93;100.00
9460;BME280;4768;42.664;23.240;2023-03-03T10:36:59;-9519.28;;;3.84;100.00
9460;BME280;4768;42.664;23.240;2023-03-03T10:39:44;-9522.69;;;3.96;100.00
9460;BME280;4768;42.664;23.240;2023-03-03T10:42:22;-9524.09;;;4.01;100.00
9460;BME280;4768;42.664;23.240;2023-03-03T10:48:09;-9520.84;;;3.89;100.00
9460;BME280;4768;42.664;23.240;2023-03-03T10:50:49;-9524.09;;;4.01;100.00
9460;BME280;4768;42.664;23.240;2023-03-03T10:53:21;-9525.78;;;4.07;100.00
9460;BME280;4768;42.664;23.240;2023-03-03T10:56:12;-9524.09;;;4.01;100.00
9460;BME280;4768;42.664;23.240;2023-03-03T10:58:45;-9525.09;;;4.04;100.00
9460;BME280;4768;42.664;23.240;2023-03-03T11:01:28;-9530.88;;;4.25;100.00
9460;BME280;4768;42.664;23.240;2023-03-03T11:04:33;-9526.50;;;4.09;100.00
9460;BME280;4768;42.664;23.240;2023-03-03T11:07:11;-9528.47;;;4.16;100.00
9460;BME280;4768;42.664;23.240;2023-03-03T11:09:59;-9528.34;;;4.16;100.00
9460;BME280;4768;42.664;23.240;2023-03-03T11:12:40;-9529.75;;;4.21;100.00
9460;BME280;4768;42.664;23.240;2023-03-03T11:15:25;-9528.06;;;4.15;100.00
9460;BME280;4768;42.664;23.240;2023-03-03T11:18:02;-9525.78;;;4.07;100.00
9460;BME280;4768;42.664;23.240;2023-03-03T11:20:37;-9527.63;;;4.13;100.00
9460;BME280;4768;42.664;23.240;2023-03-03T11:23:23;-9522.97;;;3.97;100.00
9460;BME280;4768;42.664;23.240;2023-03-03T11:26:06;-9523.38;;;3.98;100.00
9460;BME280;4768;42.664;23.240;2023-03-03T11:28:58;-9524.53;;;4.02;100.00
9460;BME280;4768;42.664;23.240;2023-03-03T11:31:32;-9526.78;;;4.10;100.00
9460;BME280;4768;42.664;23.240;2023-03-03T11:34:12;-9529.59;;;4.20;100.00
9460;BME280;4768;42.664;23.240;2023-03-03T11:36:44;-9532.72;;;4.31;100.00
9460;BME280;4768;42.664;23.240;2023-03-03T11:39:17;-9527.91;;;4.14;100.00
9460;BME280;4768;42.664;23.240;2023-03-03T11:41:57;-9530.16;;;4.22;100.00
9460;BME280;4768;42.664;23.240;2023-03-03T11:44:31;-9529.03;;;4.18;100.00
9460;BME280;4768;42.664;23.240;2023-03-03T11:47:02;-9526.63;;;4.10;100.00
9460;BME280;4768;42.664;23.240;2023-03-03T11:49:37;-9524.94;;;4.04;100.00
9460;BME280;4768;42.664;23.240;2023-03-03T11:52:16;-9527.75;;;4.14;100.00
9460;BME280;4768;42.664;23.240;2023-03-03T11:54:51;-9532.84;;;4.31;100.00
9460;BME280;4768;42.664;23.240;2023-03-03T11:57:24;-9529.59;;;4.20;100.00
9460;BME280;4768;42.664;23.240;2023-03-03T12:00:02;-9532.00;;;4.29;100.00
9460;BME280;4768;42.664;23.240;2023-03-03T12:02:44;-9533.41;;;4.33;100.00
9460;BME280;4768;42.664;23.240;2023-03-03T12:05:24;-9534.84;;;4.38;100.00
9460;BME280;4768;42.664;23.240;2023-03-03T12:08:00;-9533.28;;;4.33;100.00
9460;BME280;4768;42.664;23.240;2023-03-03T12:10:32;-9533.97;;;4.35;100.00
9460;BME280;4768;42.664;23.240;2023-03-03T12:13:05;-9530.44;;;4.23;100.00
9460;BME280;4768;42.664;23.240;2023-03-03T12:15:44;-9535.25;;;4.40;100.00
9460;BME280;4768;42.664;23.240;2023-03-03T12:18:34;-9533.00;;;4.32;100.00
9460;BME280;4768;42.664;23.240;2023-03-03T12:21:15;-9534.13;;;4.36;100.00
9460;BME280;4768;42.664;23.240;2023-03-03T12:26:46;-9528.34;;;4.16;100.00
9460;BME280;4768;42.664;23.240;2023-03-03T12:29:24;-9528.91;;;4.18;100.00
9460;BME280;4768;42.664;23.240;2023-03-03T12:31:58;-9530.72;;;4.24;100.00
9460;BME280;4768;42.664;23.240;2023-03-03T12:34:35;-9530.59;;;4.24;100.00
9460;BME280;4768;42.664;23.240;2023-03-03T12:37:13;-9534.41;;;4.37;100.00
9460;BME280;4768;42.664;23.240;2023-03-03T12:39:53;-9529.47;;;4.20;100.00
9460;BME280;4768;42.664;23.240;2023-03-03T12:42:33;-9531.00;;;4.25;100.00
9460;BME280;4768;42.664;23.240;2023-03-03T12:45:13;-9530.31;;;4.23;100.00
9460;BME280;4768;42.664;23.240;2023-03-03T12:47:48;-9532.00;;;4.29;100.00
9460;BME280;4768;42.664;23.240;2023-03-03T12:50:26;-9532.44;;;4.30;100.00
9460;BME280;4768;42.664;23.240;2023-03-03T12:53:02;-9529.03;;;4.18;100.00
9460;BME280;4768;42.664;23.240;2023-03-03T12:55:43;-9531.88;;;4.28;100.00
9460;BME280;4768;42.664;23.240;2023-03-03T12:58:23;-9533.41;;;4.33;100.00
9460;BME280;4768;42.664;23.240;2023-03-03T13:01:04;-9533.56;;;4.34;100.00
9460;BME280;4768;42.664;23.240;2023-03-03T13:03:39;-9533.84;;;4.35;100.00
9460;BME280;4768;42.664;23.240;2023-03-03T13:06:16;-9531.72;;;4.28;100.00
9460;BME280;4768;42.664;23.240;2023-03-03T13:08:58;-9531.56;;;4.27;100.00
9460;BME280;4768;42.664;23.240;2023-03-03T13:11:44;-9533.28;;;4.33;100.00
9460;BME280;4768;42.664;23.240;2023-03-03T13:14:21;-9533.56;;;4.34;100.00
9460;BME280;4768;42.664;23.240;2023-03-03T13:17:06;-9531.88;;;4.28;100.00
9460;BME280;4768;42.664;23.240;2023-03-03T13:19:39;-9534.84;;;4.38;100.00
9460;BME280;4768;42.664;23.240;2023-03-03T13:22:09;-9533.00;;;4.32;100.00
9460;BME280;4768;42.664;23.240;2023-03-03T13:24:46;-9530.59;;;4.24;100.00
9460;BME280;4768;42.664;23.240;2023-03-03T13:27:21;-9536.81;;;4.45;100.00
9460;BME280;4768;42.664;23.240;2023-03-03T13:29:55;-9539.50;;;4.55;100.00
9460;BME280;4768;42.664;23.240;2023-03-03T13:32:30;-9531.00;;;4.25;100.00
9460;BME280;4768;42.664;23.240;2023-03-03T13:35:05;-9531.44;;;4.27;100.00
9460;BME280;4768;42.664;23.240;2023-03-03T13:37:36;-9532.72;;;4.31;100.00
9460;BME280;4768;42.664;23.240;2023-03-03T13:40:12;-9532.84;;;4.31;100.00
9460;BME280;4768;42.664;23.240;2023-03-03T13:42:45;-9532.56;;;4.31;100.00